LFLP 170830Z AUTO 07004KT 030V090 CAVOK 08/05 Q1022 BECMG 22010KT

ElémentsDécodage
LFLP Station météo située sur l'aérodrome de ANNECY Meythet
170830Z émis le 17 du mois à 08h30 UTC
AUTO Bulletin édité par un automate
07004KT vent du 070°, 04 noeuds
030V090 vent de direction variable entre 030° et 090°
CAVOK Ceiling And Visibility OK
- Visibilité de 10 Km ou plus
- Pas de nuage au-dessous de 1500m ou au-dessous de l'altitude minimale du secteur la plus élevée (si>1500m) et absence de CB
- pas de temps présent significatif
08/05 température 08°C, point de rosée 05°C
 soit une humidité relative de 81%
Q1022 la pression au niveau de la mer (QNH) est de 1022 hPa
BECMG fluctuation du temps prévue
22010KT vent du 220°, 10 noeuds